Time;durP1;ratioP1;P1;durP2;ratioP2;P2;SDS_P1;SDS_P2;PMS_P1;PMS_P2;Temp;Humidity;BMP_temperature;BMP_pressure;BME280_temperature;BME280_humidity;BME280_pressure;Samples;Min_cycle;Max_cycle;Signal;HPM_P1;HPM_P2
2022/08/24 00:01:24;;;;;;;3.63;0.77;;;12.90;99.90;;;;;;4956676;29;20023;-76
2022/08/24 00:03:52;;;;;;;3.53;0.80;;;12.90;99.90;;;;;;4956719;29;20027;-76
2022/08/24 00:06:21;;;;;;;1.45;0.70;;;13.10;99.90;;;;;;4956118;29;20492;-76
2022/08/24 00:08:50;;;;;;;7.32;1.27;;;13.10;99.90;;;;;;4957394;28;20419;-75
2022/08/24 00:11:18;;;;;;;6.70;0.70;;;13.00;99.90;;;;;;4956158;29;20061;-75
2022/08/24 00:13:47;;;;;;;5.22;1.00;;;13.00;99.90;;;;;;4957700;28;20028;-76
2022/08/24 00:16:16;;;;;;;2.60;0.73;;;13.00;99.90;;;;;;4957281;29;20031;-76
2022/08/24 00:18:46;;;;;;;5.32;1.00;;;13.00;99.90;;;;;;4956568;29;20020;-75
2022/08/24 00:21:17;;;;;;;4.80;0.80;;;13.10;99.90;;;;;;4956985;28;20035;-75
2022/08/24 00:23:47;;;;;;;3.78;0.70;;;13.20;99.90;;;;;;4956988;28;20106;-75
2022/08/24 00:26:17;;;;;;;1.80;0.80;;;13.10;99.90;;;;;;4955244;29;20126;-78
2022/08/24 00:28:47;;;;;;;3.17;0.87;;;13.00;99.90;;;;;;4955931;28;20031;-76
2022/08/24 00:31:16;;;;;;;18.77;2.92;;;13.10;99.90;;;;;;4939985;29;20105;-77
2022/08/24 00:33:44;;;;;;;4.13;1.20;;;13.20;99.90;;;;;;4924389;29;20074;-77
2022/08/24 00:36:11;;;;;;;2.97;0.80;;;13.50;99.90;;;;;;4955726;29;20094;-78
2022/08/24 00:38:39;;;;;;;2.03;0.70;;;13.70;99.90;;;;;;4955380;29;20512;-76
2022/08/24 00:41:06;;;;;;;2.50;0.55;;;13.90;99.90;;;;;;4956792;28;20081;-77
2022/08/24 00:43:34;;;;;;;4.13;1.25;;;14.10;99.90;;;;;;4958334;28;20074;-77
2022/08/24 00:46:18;;;;;;;3.33;0.70;;;14.20;99.90;;;;;;4940294;29;20035;-77
2022/08/24 00:48:51;;;;;;;2.15;0.60;;;14.30;99.90;;;;;;4957956;28;20024;-76
2022/08/24 00:51:29;;;;;;;4.97;0.70;;;14.30;99.90;;;;;;4957136;28;20053;-79
2022/08/24 00:54:01;;;;;;;3.03;0.70;;;14.30;99.40;;;;;;4955478;29;20028;-79
2022/08/24 00:56:35;;;;;;;1.88;0.50;;;14.40;99.90;;;;;;4956044;29;20391;-77
2022/08/24 00:59:10;;;;;;;2.95;0.98;;;14.30;99.50;;;;;;4956063;29;20051;-77
2022/08/24 01:01:43;;;;;;;3.42;0.98;;;14.20;99.60;;;;;;4957265;28;20030;-76
2022/08/24 01:04:20;;;;;;;4.47;0.93;;;14.40;99.90;;;;;;4955921;29;20059;-77
2022/08/24 01:06:51;;;;;;;4.85;1.15;;;14.50;99.90;;;;;;4956265;29;20093;-79
2022/08/24 01:09:19;;;;;;;4.25;0.93;;;14.40;99.30;;;;;;4958127;28;20461;-79
2022/08/24 01:11:47;;;;;;;1.50;0.55;;;14.60;99.70;;;;;;4955825;29;20027;-79
2022/08/24 01:14:21;;;;;;;4.95;1.38;;;14.60;99.60;;;;;;4957690;28;20035;-79
2022/08/24 01:19:42;;;;;;;3.97;0.80;;;14.70;98.70;;;;;;4958239;29;19995;-82
2022/08/24 01:22:48;;;;;;;2.53;0.85;;;14.70;99.10;;;;;;4957030;29;20024;-81
2022/08/24 01:25:19;;;;;;;7.88;1.58;;;14.70;99.00;;;;;;4957144;29;20027;-81
2022/08/24 01:27:49;;;;;;;4.25;0.93;;;15.10;99.20;;;;;;4956748;29;20027;-79
2022/08/24 01:30:20;;;;;;;5.55;1.00;;;15.00;98.90;;;;;;4955982;29;20034;-79
2022/08/24 01:33:03;;;;;;;4.10;0.80;;;15.20;98.70;;;;;;4941274;29;20032;-80
2022/08/24 01:35:31;;;;;;;4.07;0.90;;;15.40;98.20;;;;;;4957345;29;20035;-78
2022/08/24 01:38:03;;;;;;;3.75;0.70;;;15.40;98.50;;;;;;4956900;28;20030;-78
2022/08/24 01:40:39;;;;;;;2.80;0.85;;;15.70;98.90;;;;;;4958607;28;20043;-81
2022/08/24 01:43:07;;;;;;;2.40;0.80;;;16.00;97.80;;;;;;4959424;29;20027;-79
2022/08/24 01:45:35;;;;;;;2.50;0.75;;;15.80;97.90;;;;;;4959492;29;20023;-79
2022/08/24 01:48:02;;;;;;;2.22;0.50;;;16.10;97.80;;;;;;4961222;28;20392;-78
2022/08/24 01:50:30;;;;;;;4.38;0.90;;;15.80;96.90;;;;;;4960857;28;20028;-79
2022/08/24 01:53:02;;;;;;;2.15;0.70;;;15.70;97.30;;;;;;4959098;29;20078;-79
2022/08/24 01:55:30;;;;;;;3.53;0.70;;;15.70;97.60;;;;;;4960280;28;20362;-77
2022/08/24 01:58:02;;;;;;;4.03;0.95;;;16.10;97.40;;;;;;4959210;29;20023;-77
2022/08/24 02:00:30;;;;;;;2.05;0.80;;;16.30;97.90;;;;;;4959622;29;20055;-78
2022/08/24 02:03:02;;;;;;;2.78;0.95;;;16.30;97.10;;;;;;4960471;28;20027;-78
2022/08/24 02:05:30;;;;;;;3.55;1.02;;;16.50;96.30;;;;;;4960221;28;20023;-78
2022/08/24 02:07:57;;;;;;;3.08;0.70;;;16.60;96.60;;;;;;4960525;28;20023;-79
2022/08/24 02:10:29;;;;;;;3.00;0.57;;;17.20;97.20;;;;;;4959309;29;20059;-80
2022/08/24 02:12:58;;;;;;;2.47;0.70;;;17.10;95.70;;;;;;4959123;29;20054;-79
2022/08/24 02:15:31;;;;;;;4.18;0.85;;;16.90;96.00;;;;;;4960813;28;20031;-79
2022/08/24 02:17:59;;;;;;;3.72;0.90;;;16.90;95.70;;;;;;4959314;29;20027;-78
2022/08/24 02:20:28;;;;;;;2.80;0.70;;;17.10;96.00;;;;;;4960300;28;20030;-79
2022/08/24 02:22:57;;;;;;;4.95;1.05;;;17.00;95.00;;;;;;4958062;29;20030;-78
2022/08/24 02:25:31;;;;;;;2.70;0.90;;;17.40;95.70;;;;;;4959522;28;20027;-77
2022/08/24 02:28:00;;;;;;;3.95;0.70;;;16.70;96.70;;;;;;4958158;29;20046;-77
2022/08/24 02:30:31;;;;;;;6.93;1.10;;;16.70;96.60;;;;;;4959726;28;20031;-78
2022/08/24 02:32:59;;;;;;;4.65;1.10;;;17.10;96.40;;;;;;4958877;29;20506;-77
2022/08/24 02:35:29;;;;;;;3.60;0.82;;;17.40;97.10;;;;;;4958352;29;20511;-78
2022/08/24 02:37:59;;;;;;;4.30;1.00;;;17.10;96.60;;;;;;4958571;29;20038;-77
2022/08/24 02:40:30;;;;;;;4.20;1.05;;;16.70;96.30;;;;;;4943463;29;20478;-80
2022/08/24 02:43:02;;;;;;;3.03;0.95;;;16.70;96.70;;;;;;4960696;28;20051;-79
2022/08/24 02:45:29;;;;;;;2.33;0.63;;;16.60;95.80;;;;;;4959976;28;20031;-81
2022/08/24 02:47:58;;;;;;;2.95;1.20;;;16.30;95.30;;;;;;4958791;29;20145;-79
2022/08/24 02:50:26;;;;;;;3.45;1.02;;;16.60;94.80;;;;;;4958475;29;20518;-78
2022/08/24 02:52:54;;;;;;;3.30;1.00;;;16.70;95.00;;;;;;4958415;29;20428;-78
2022/08/24 02:55:21;;;;;;;3.97;0.90;;;17.10;95.40;;;;;;4958182;29;20492;-78
2022/08/24 02:57:49;;;;;;;4.55;1.00;;;17.30;96.00;;;;;;4958495;29;20031;-81
2022/08/24 03:00:22;;;;;;;4.63;1.20;;;17.30;94.20;;;;;;4959747;28;20019;-79
2022/08/24 03:02:50;;;;;;;3.15;0.70;;;16.90;94.70;;;;;;4958531;29;20110;-80
2022/08/24 03:05:23;;;;;;;3.38;1.00;;;16.80;95.30;;;;;;4959670;28;20086;-79
2022/08/24 03:07:57;;;;;;;4.22;0.82;;;16.70;95.10;;;;;;4959636;28;20504;-79
2022/08/24 03:10:25;;;;;;;1.90;0.50;;;17.10;94.70;;;;;;4959612;28;20032;-77
2022/08/24 03:12:53;;;;;;;3.38;0.85;;;17.20;95.50;;;;;;4960327;28;20476;-78
2022/08/24 03:15:22;;;;;;;3.55;0.82;;;17.40;96.10;;;;;;4958510;29;20105;-79
2022/08/24 03:17:53;;;;;;;3.90;0.82;;;17.10;94.50;;;;;;4959010;28;20050;-77
2022/08/24 03:20:22;;;;;;;3.92;1.00;;;16.80;95.20;;;;;;4958315;29;20077;-76
2022/08/24 03:22:51;;;;;;;2.20;0.60;;;16.90;94.80;;;;;;4958457;28;20074;-75
2022/08/24 03:25:23;;;;;;;3.85;0.85;;;17.10;94.50;;;;;;4940681;29;20515;-77
2022/08/24 03:27:51;;;;;;;3.85;0.88;;;17.40;95.60;;;;;;4957477;29;20031;-79
2022/08/24 03:30:19;;;;;;;3.47;1.08;;;17.40;94.80;;;;;;4959149;28;20049;-77
2022/08/24 03:32:46;;;;;;;2.38;0.80;;;17.50;94.90;;;;;;4957948;29;20028;-79
2022/08/24 03:35:15;;;;;;;5.15;1.23;;;17.50;94.80;;;;;;4957518;29;20028;-79
2022/08/24 03:37:43;;;;;;;3.72;0.98;;;17.50;94.40;;;;;;4958292;29;20172;-78
2022/08/24 03:40:11;;;;;;;2.70;0.80;;;17.50;94.90;;;;;;4958247;28;20124;-78
2022/08/24 03:42:39;;;;;;;4.15;0.75;;;17.70;94.40;;;;;;4958304;28;20043;-78
2022/08/24 03:45:08;;;;;;;5.85;0.90;;;17.70;94.90;;;;;;4958489;28;20093;-76
2022/08/24 03:47:36;;;;;;;5.18;1.15;;;18.00;94.90;;;;;;4957395;29;20480;-77
2022/08/24 03:50:06;;;;;;;4.78;1.00;;;18.30;94.80;;;;;;4956793;29;20118;-78
2022/08/24 03:52:34;;;;;;;4.63;1.25;;;18.40;94.00;;;;;;4957052;29;20388;-79
2022/08/24 03:55:04;;;;;;;2.58;1.20;;;18.20;94.30;;;;;;4958674;28;20038;-78
2022/08/24 03:57:32;;;;;;;3.42;0.93;;;18.20;94.40;;;;;;4956989;29;20023;-78
2022/08/24 04:00:00;;;;;;;3.72;1.02;;;18.10;93.50;;;;;;4958352;28;20027;-78
2022/08/24 04:02:27;;;;;;;3.58;1.25;;;17.70;93.70;;;;;;4956513;28;20081;-77
2022/08/24 04:04:55;;;;;;;3.35;0.90;;;17.60;94.70;;;;;;4958062;28;20032;-78
2022/08/24 04:07:23;;;;;;;3.13;1.13;;;17.70;95.20;;;;;;4956700;29;20028;-79
2022/08/24 04:09:50;;;;;;;6.85;1.63;;;17.70;95.60;;;;;;4957791;28;20027;-78
2022/08/24 04:12:19;;;;;;;4.15;1.13;;;17.80;95.50;;;;;;4957915;28;20030;-78
2022/08/24 04:14:46;;;;;;;6.30;0.93;;;17.80;95.60;;;;;;4940406;29;20110;-80
2022/08/24 04:17:14;;;;;;;4.30;1.08;;;17.60;94.70;;;;;;4957626;28;20416;-78
2022/08/24 04:19:56;;;;;;;3.30;0.80;;;17.50;94.90;;;;;;4956434;29;20031;-79
2022/08/24 04:22:26;;;;;;;4.72;1.13;;;17.60;95.00;;;;;;4956154;29;20019;-78
2022/08/24 04:24:55;;;;;;;3.50;0.93;;;17.60;95.50;;;;;;4956238;29;20495;-78
2022/08/24 04:27:23;;;;;;;3.92;1.10;;;17.80;95.60;;;;;;4940426;29;20035;-79
2022/08/24 04:29:51;;;;;;;5.63;1.40;;;17.70;94.90;;;;;;4957841;28;20031;-80
2022/08/24 04:32:20;;;;;;;6.03;1.10;;;17.60;95.10;;;;;;4957993;28;20024;-80
2022/08/24 04:34:50;;;;;;;3.90;1.08;;;17.50;95.90;;;;;;4957443;28;20042;-78
2022/08/24 04:37:17;;;;;;;5.28;1.70;;;17.50;96.00;;;;;;4956498;29;20051;-80
2022/08/24 04:39:45;;;;;;;4.32;1.33;;;17.50;95.40;;;;;;4956380;28;20055;-80
2022/08/24 04:42:13;;;;;;;4.03;1.35;;;17.70;96.50;;;;;;4956494;29;20043;-79
2022/08/24 04:44:41;;;;;;;2.90;1.08;;;17.70;95.50;;;;;;4957734;28;20051;-78
2022/08/24 04:47:09;;;;;;;6.75;1.00;;;17.50;95.40;;;;;;4956220;29;20484;-79
2022/08/24 04:49:37;;;;;;;2.30;0.95;;;17.20;95.40;;;;;;4957352;28;20387;-80
2022/08/24 04:52:07;;;;;;;4.18;1.20;;;17.10;96.20;;;;;;4957613;28;20019;-79
2022/08/24 04:54:34;;;;;;;5.63;1.05;;;17.10;95.70;;;;;;4956448;29;20034;-79
2022/08/24 04:57:02;;;;;;;4.97;1.05;;;17.10;96.20;;;;;;4956071;29;20144;-80
2022/08/24 04:59:29;;;;;;;4.70;1.05;;;17.20;97.00;;;;;;4956402;29;20019;-81
2022/08/24 05:01:57;;;;;;;3.42;1.27;;;17.10;96.60;;;;;;4955531;29;20030;-81
2022/08/24 05:04:25;;;;;;;5.65;1.17;;;17.10;96.60;;;;;;4955792;29;20024;-80
2022/08/24 05:06:52;;;;;;;3.17;0.85;;;16.90;95.80;;;;;;4955076;29;20058;-79
2022/08/24 05:09:19;;;;;;;4.40;1.10;;;16.80;96.70;;;;;;4956667;28;20519;-80
2022/08/24 05:11:47;;;;;;;3.85;1.30;;;16.90;96.20;;;;;;4955613;29;20550;-81
2022/08/24 05:14:15;;;;;;;5.35;1.10;;;16.80;96.90;;;;;;4956503;28;20086;-80
2022/08/24 05:16:44;;;;;;;1.98;0.65;;;16.60;96.30;;;;;;4956868;28;20506;-81
2022/08/24 05:19:11;;;;;;;3.78;0.90;;;16.50;96.50;;;;;;4956824;28;20047;-80
2022/08/24 05:21:41;;;;;;;6.47;1.40;;;16.50;97.10;;;;;;4955695;29;20027;-81
2022/08/24 05:24:08;;;;;;;2.78;0.93;;;16.40;97.00;;;;;;4956944;28;20086;-81
2022/08/24 05:26:36;;;;;;;2.35;0.80;;;16.20;96.90;;;;;;4956981;28;20409;-81
2022/08/24 05:29:04;;;;;;;4.50;1.10;;;16.20;97.10;;;;;;4955786;29;20027;-80
2022/08/24 05:31:32;;;;;;;4.60;0.95;;;16.20;97.50;;;;;;4955800;29;20027;-81
2022/08/24 05:34:01;;;;;;;3.47;0.80;;;16.10;97.30;;;;;;4956838;28;20028;-81
2022/08/24 05:36:32;;;;;;;4.25;1.00;;;16.10;98.10;;;;;;4956546;28;20028;-81
2022/08/24 05:39:02;;;;;;;6.45;0.98;;;16.00;97.90;;;;;;4956460;28;20507;-76
2022/08/24 05:41:29;;;;;;;4.88;1.02;;;16.00;97.50;;;;;;4955734;28;20055;-76
2022/08/24 05:43:57;;;;;;;4.65;1.08;;;15.90;98.10;;;;;;4954646;29;20118;-76
2022/08/24 05:46:25;;;;;;;8.18;1.30;;;16.00;98.00;;;;;;4954688;29;20434;-75
2022/08/24 05:48:53;;;;;;;2.55;0.95;;;15.90;98.30;;;;;;4954987;29;20031;-77
2022/08/24 05:51:21;;;;;;;2.97;0.93;;;15.90;98.20;;;;;;4956053;28;20027;-76
2022/08/24 05:53:50;;;;;;;3.25;0.85;;;15.90;98.30;;;;;;4955885;28;20387;-75
2022/08/24 05:56:20;;;;;;;3.63;0.88;;;15.70;98.10;;;;;;4955505;28;20019;-74
2022/08/24 05:58:48;;;;;;;4.27;1.00;;;15.70;98.90;;;;;;4954424;29;20027;-74
2022/08/24 06:01:19;;;;;;;3.75;0.65;;;15.80;99.00;;;;;;4954327;29;20481;-75
2022/08/24 06:03:48;;;;;;;4.20;1.30;;;15.80;98.90;;;;;;4955942;28;20023;-75
2022/08/24 06:06:18;;;;;;;4.55;0.85;;;15.80;98.70;;;;;;4938210;29;20507;-75
2022/08/24 06:08:48;;;;;;;6.50;1.08;;;15.50;98.80;;;;;;4939115;29;20565;-75
2022/08/24 06:11:31;;;;;;;7.68;1.08;;;15.40;99.00;;;;;;4938641;29;20061;-75
2022/08/24 06:14:05;;;;;;;2.92;0.95;;;15.50;99.70;;;;;;4954602;29;20083;-78
2022/08/24 06:16:36;;;;;;;4.60;1.10;;;15.40;99.50;;;;;;4955883;28;20023;-74
2022/08/24 06:19:04;;;;;;;5.70;0.90;;;15.40;99.60;;;;;;4954183;29;20483;-74
2022/08/24 06:21:32;;;;;;;4.90;0.88;;;15.40;99.00;;;;;;4954187;29;20031;-74
2022/08/24 06:24:00;;;;;;;4.85;1.27;;;15.30;99.60;;;;;;4955388;28;20475;-74
2022/08/24 06:29:14;;;;;;;4.55;1.10;;;15.20;99.90;;;;;;4959251;29;20132;-73
2022/08/24 06:31:45;;;;;;;5.25;1.13;;;15.20;99.90;;;;;;4959290;28;20054;-73
2022/08/24 06:34:17;;;;;;;3.55;1.05;;;15.10;99.90;;;;;;4957990;29;20032;-74
2022/08/24 06:36:46;;;;;;;5.30;1.35;;;15.00;99.70;;;;;;4959001;28;20114;-74
2022/08/24 06:39:14;;;;;;;4.40;1.02;;;15.00;99.90;;;;;;4958699;28;20027;-74
2022/08/24 06:41:42;;;;;;;4.57;1.13;;;14.90;99.90;;;;;;4957102;29;20058;-73
2022/08/24 06:44:09;;;;;;;6.80;1.25;;;14.80;99.90;;;;;;4957691;29;20031;-74
2022/08/24 06:46:37;;;;;;;4.35;1.30;;;14.70;99.90;;;;;;4957747;29;20031;-73
2022/08/24 06:49:04;;;;;;;3.55;0.80;;;14.70;99.90;;;;;;4957358;29;20089;-74
2022/08/24 06:51:32;;;;;;;4.25;0.85;;;14.60;99.90;;;;;;4958728;28;20086;-74
2022/08/24 06:53:59;;;;;;;4.85;1.27;;;14.40;99.90;;;;;;4956895;29;20381;-74
2022/08/24 06:56:27;;;;;;;3.30;0.90;;;14.30;99.90;;;;;;4956896;29;20034;-75
2022/08/24 06:58:55;;;;;;;5.05;1.10;;;14.20;99.90;;;;;;4958281;28;20019;-73
2022/08/24 07:01:25;;;;;;;3.60;0.90;;;14.20;99.90;;;;;;4956836;29;20027;-73
2022/08/24 07:03:53;;;;;;;7.75;1.65;;;14.10;99.90;;;;;;4958425;28;20341;-73
2022/08/24 07:06:22;;;;;;;5.00;1.10;;;14.00;99.90;;;;;;4956587;29;20090;-72
2022/08/24 07:08:51;;;;;;;5.22;1.40;;;13.90;99.90;;;;;;4958437;28;20050;-74
2022/08/24 07:11:21;;;;;;;3.50;1.40;;;13.90;99.90;;;;;;4956575;29;20031;-74
2022/08/24 07:13:49;;;;;;;5.30;1.02;;;13.80;99.90;;;;;;4958185;28;20051;-74
2022/08/24 07:16:20;;;;;;;5.40;1.23;;;13.70;99.90;;;;;;4956818;29;20114;-74
2022/08/24 07:18:48;;;;;;;5.07;1.17;;;13.70;99.90;;;;;;4958104;28;20023;-74
2022/08/24 07:21:18;;;;;;;5.25;1.10;;;13.50;99.90;;;;;;4957999;28;20110;-74
2022/08/24 07:23:47;;;;;;;3.63;0.88;;;13.40;99.90;;;;;;4958421;28;20023;-74
2022/08/24 07:26:19;;;;;;;2.80;0.93;;;13.30;99.90;;;;;;4956856;29;20035;-73
2022/08/24 07:28:46;;;;;;;5.18;1.45;;;13.30;99.90;;;;;;4956544;29;20054;-74
2022/08/24 07:31:14;;;;;;;4.00;1.45;;;13.30;99.90;;;;;;4958201;28;20030;-75
2022/08/24 07:33:42;;;;;;;4.25;1.02;;;13.20;99.90;;;;;;4956291;29;20554;-74
2022/08/24 07:36:09;;;;;;;5.07;1.63;;;13.10;99.90;;;;;;4957590;28;20038;-73
2022/08/24 07:38:37;;;;;;;3.70;1.05;;;13.00;99.90;;;;;;4956967;28;20502;-75
2022/08/24 07:41:05;;;;;;;3.90;1.45;;;12.90;99.90;;;;;;4955763;28;20075;-74
2022/08/24 07:43:32;;;;;;;3.58;1.30;;;12.80;99.90;;;;;;4956279;29;20032;-75
2022/08/24 07:46:00;;;;;;;2.83;1.20;;;12.70;99.90;;;;;;4957820;28;20337;-73
2022/08/24 07:48:27;;;;;;;5.32;1.58;;;12.60;99.90;;;;;;4955914;29;20078;-74
2022/08/24 07:50:55;;;;;;;5.93;1.77;;;12.50;99.90;;;;;;4956176;29;20035;-73
2022/08/24 07:53:24;;;;;;;7.20;1.50;;;12.40;99.90;;;;;;4957357;28;20024;-74
2022/08/24 07:55:57;;;;;;;6.38;1.77;;;12.30;99.90;;;;;;4957179;29;20035;-73
2022/08/24 07:58:25;;;;;;;6.72;1.67;;;12.30;99.90;;;;;;4956081;29;20034;-72
2022/08/24 08:00:52;;;;;;;6.28;1.70;;;12.30;99.90;;;;;;4956868;28;20107;-72
2022/08/24 08:03:20;;;;;;;9.32;1.48;;;12.20;99.90;;;;;;4955865;29;20079;-73
2022/08/24 08:05:48;;;;;;;3.20;1.30;;;12.10;99.90;;;;;;4957214;28;20035;-73
2022/08/24 08:08:16;;;;;;;5.40;1.40;;;12.00;99.90;;;;;;4956965;28;20074;-73
2022/08/24 08:10:43;;;;;;;4.60;1.50;;;11.90;99.90;;;;;;4955721;29;20027;-73
2022/08/24 08:13:11;;;;;;;5.38;1.38;;;11.90;99.90;;;;;;4955727;29;20031;-73
2022/08/24 08:15:38;;;;;;;3.83;1.35;;;11.80;99.90;;;;;;4955458;29;20027;-73
2022/08/24 08:18:06;;;;;;;4.07;1.58;;;11.70;99.90;;;;;;4955583;29;20031;-73
2022/08/24 08:20:33;;;;;;;2.50;1.40;;;11.70;99.90;;;;;;4956949;28;20023;-73
2022/08/24 08:25:53;;;;;;;5.22;1.88;;;11.60;99.90;;;;;;4957075;29;20082;-73
2022/08/24 08:28:21;;;;;;;3.42;1.50;;;11.50;99.90;;;;;;4956154;29;20039;-75
2022/08/24 08:30:52;;;;;;;5.07;1.98;;;11.40;99.90;;;;;;4940171;29;20125;-74
2022/08/24 08:33:20;;;;;;;6.55;1.88;;;11.40;99.90;;;;;;4956065;29;20031;-75
2022/08/24 08:35:49;;;;;;;4.88;2.53;;;11.40;99.90;;;;;;4955665;29;20028;-75
2022/08/24 08:38:16;;;;;;;4.47;1.70;;;11.40;99.90;;;;;;4955328;29;20023;-75
2022/08/24 08:41:18;;;;;;;8.00;2.30;;;11.40;99.90;;;;;;4955097;28;20054;-74
2022/08/24 08:44:01;;;;;;;9.82;3.85;;;11.50;99.90;;;;;;4955504;29;20023;-72
2022/08/24 08:46:46;;;;;;;7.57;3.30;;;11.50;99.90;;;;;;4955675;29;20042;-74
2022/08/24 08:49:34;;;;;;;5.40;2.95;;;11.60;99.90;;;;;;4954698;28;20043;-73
2022/08/24 08:52:13;;;;;;;8.25;3.72;;;11.60;99.90;;;;;;4956358;28;20023;-73
2022/08/24 08:54:48;;;;;;;9.70;3.33;;;11.50;99.90;;;;;;4956406;28;20043;-73
2022/08/24 08:57:34;;;;;;;8.00;3.90;;;11.40;99.90;;;;;;4956892;28;20023;-72
2022/08/24 09:00:18;;;;;;;6.80;3.40;;;11.40;99.90;;;;;;4955075;29;20078;-73
2022/08/24 09:03:04;;;;;;;14.73;3.72;;;11.40;99.90;;;;;;4954869;29;20055;-73
2022/08/24 09:05:50;;;;;;;6.45;2.50;;;11.30;99.90;;;;;;4956343;28;20063;-73
2022/08/24 09:08:20;;;;;;;6.65;2.70;;;11.40;99.90;;;;;;4956064;28;20030;-73
2022/08/24 09:10:56;;;;;;;6.78;3.17;;;11.40;99.90;;;;;;4954653;29;20078;-73
2022/08/24 09:14:01;;;;;;;7.13;3.33;;;11.30;99.90;;;;;;4954713;29;20028;-73
2022/08/24 09:16:56;;;;;;;6.68;3.13;;;11.30;99.90;;;;;;4956150;29;20387;-73
2022/08/24 09:19:33;;;;;;;8.43;2.95;;;11.30;99.90;;;;;;4954775;29;20031;-72
2022/08/24 09:22:03;;;;;;;7.53;3.30;;;11.20;99.90;;;;;;4954515;29;20035;-73
2022/08/24 09:24:46;;;;;;;6.90;3.53;;;11.10;99.90;;;;;;4956518;28;20051;-73
2022/08/24 09:27:35;;;;;;;6.47;3.67;;;11.10;99.90;;;;;;4956001;28;20106;-73
2022/08/24 09:30:25;;;;;;;8.65;3.47;;;11.00;99.90;;;;;;4956171;28;20078;-73
2022/08/24 09:33:05;;;;;;;10.77;3.15;;;11.00;99.90;;;;;;4954721;29;20038;-73
2022/08/24 09:35:51;;;;;;;10.48;2.97;;;11.00;99.90;;;;;;4954368;29;20488;-73
2022/08/24 09:38:42;;;;;;;4.97;2.63;;;11.00;99.90;;;;;;4955821;28;20531;-73
2022/08/24 09:41:37;;;;;;;6.45;2.83;;;11.00;99.90;;;;;;4954363;28;20051;-72
2022/08/24 09:44:21;;;;;;;5.32;2.40;;;11.00;99.90;;;;;;4954753;29;20400;-72
2022/08/24 09:47:19;;;;;;;6.00;2.00;;;11.00;99.90;;;;;;4955609;28;20034;-74
2022/08/24 09:50:05;;;;;;;10.23;2.60;;;11.10;99.90;;;;;;4955682;28;20023;-71
2022/08/24 09:52:38;;;;;;;5.72;2.35;;;11.20;99.90;;;;;;4954407;29;20035;-71
2022/08/24 09:55:06;;;;;;;7.40;2.50;;;11.10;99.90;;;;;;4954001;29;20484;-73
2022/08/24 09:58:02;;;;;;;6.47;2.40;;;11.10;99.90;;;;;;4954073;29;20495;-71
2022/08/24 10:00:39;;;;;;;6.35;2.05;;;11.00;99.90;;;;;;4955655;28;20045;-70
2022/08/24 10:03:26;;;;;;;6.18;1.92;;;11.00;99.90;;;;;;4959618;28;20106;-72
2022/08/24 10:06:22;;;;;;;5.38;2.00;;;11.10;99.90;;;;;;4959519;28;20392;-71
2022/08/24 10:09:10;;;;;;;6.93;1.80;;;11.30;99.90;;;;;;4954301;29;20039;-72
2022/08/24 10:11:44;;;;;;;6.82;1.90;;;11.30;99.90;;;;;;4957934;29;20495;-72
2022/08/24 10:14:30;;;;;;;9.13;2.20;;;11.30;99.90;;;;;;4957687;29;20507;-72
2022/08/24 10:17:21;;;;;;;4.63;1.80;;;11.40;99.90;;;;;;4959016;28;20102;-71
2022/08/24 10:20:09;;;;;;;5.53;1.75;;;11.50;99.90;;;;;;4957714;29;20392;-72
2022/08/24 10:22:55;;;;;;;5.40;1.77;;;11.50;99.90;;;;;;4957861;29;20027;-72
2022/08/24 10:25:36;;;;;;;6.68;2.40;;;11.50;99.90;;;;;;4958274;29;20038;-71
2022/08/24 10:28:31;;;;;;;4.43;1.88;;;11.40;99.90;;;;;;4959103;28;20027;-71
2022/08/24 10:31:03;;;;;;;5.30;2.22;;;11.40;99.90;;;;;;4957757;29;20086;-71
2022/08/24 10:34:01;;;;;;;5.47;2.22;;;11.30;99.90;;;;;;4957943;29;20049;-71
2022/08/24 10:37:05;;;;;;;3.78;1.75;;;11.30;99.90;;;;;;4957014;29;20027;-72
2022/08/24 10:39:58;;;;;;;2.95;1.67;;;11.30;99.90;;;;;;4958672;28;20024;-71
2022/08/24 10:46:12;;;;;;;2.22;0.88;;;11.30;99.90;;;;;;4958727;29;20086;-73
2022/08/24 10:49:01;;;;;;;3.53;0.90;;;11.30;99.90;;;;;;4957774;29;20510;-72
2022/08/24 10:51:39;;;;;;;3.20;0.70;;;11.30;99.90;;;;;;4958951;28;20106;-73
2022/08/24 10:54:11;;;;;;;2.47;0.52;;;11.30;99.90;;;;;;4957203;29;20027;-70
2022/08/24 10:57:02;;;;;;;2.85;0.68;;;11.30;99.90;;;;;;4957058;29;20031;-71
2022/08/24 10:59:52;;;;;;;3.33;0.77;;;11.20;99.90;;;;;;4959026;28;20454;-71
2022/08/24 11:02:37;;;;;;;2.03;0.80;;;11.30;99.90;;;;;;4950814;29;20038;-71
2022/08/24 11:05:27;;;;;;;3.90;0.60;;;11.30;99.90;;;;;;4957312;29;20064;-75
2022/08/24 11:08:04;;;;;;;1.95;0.75;;;11.30;99.90;;;;;;4957561;29;20023;-74
2022/08/24 11:10:38;;;;;;;2.72;0.40;;;11.30;99.90;;;;;;4957710;29;20023;-73
2022/08/24 11:13:22;;;;;;;1.73;0.43;;;11.20;99.90;;;;;;4959227;28;20030;-73
2022/08/24 11:16:01;;;;;;;3.35;0.40;;;11.20;99.90;;;;;;4957289;29;20031;-72
2022/08/24 11:18:53;;;;;;;2.05;0.40;;;11.10;99.90;;;;;;4956993;29;20424;-73
2022/08/24 11:21:49;;;;;;;1.92;0.40;;;11.00;99.90;;;;;;4957196;29;20538;-73
2022/08/24 11:24:25;;;;;;;2.13;0.50;;;11.00;99.90;;;;;;4958136;28;20075;-74
2022/08/24 11:27:04;;;;;;;1.95;0.52;;;10.90;99.90;;;;;;4958086;28;20041;-74
2022/08/24 11:29:53;;;;;;;2.38;0.63;;;10.90;99.90;;;;;;4956658;29;20031;-73
2022/08/24 11:32:53;;;;;;;2.78;0.70;;;10.90;99.90;;;;;;4956591;29;20042;-74
2022/08/24 11:35:27;;;;;;;2.80;0.82;;;10.80;99.90;;;;;;4925625;29;20043;-72
2022/08/24 11:38:08;;;;;;;2.03;0.50;;;10.90;99.90;;;;;;4956719;29;20028;-74
2022/08/24 11:40:42;;;;;;;1.13;0.32;;;10.90;99.90;;;;;;4958204;28;20047;-73
2022/08/24 11:43:27;;;;;;;1.15;0.40;;;10.90;99.90;;;;;;4956958;29;20028;-73
2022/08/24 11:46:22;;;;;;;1.58;0.60;;;10.90;99.90;;;;;;4956932;29;20023;-73
2022/08/24 11:49:07;;;;;;;3.22;0.55;;;10.80;99.90;;;;;;4958320;29;20031;-73
2022/08/24 11:52:12;;;;;;;1.75;0.40;;;10.70;99.90;;;;;;4956906;29;20549;-73
2022/08/24 11:55:22;;;;;;;1.70;0.52;;;10.70;99.90;;;;;;4947237;29;20043;-73
2022/08/24 11:58:22;;;;;;;2.90;0.40;;;10.70;99.90;;;;;;4953488;29;20083;-73
2022/08/24 12:01:20;;;;;;;3.42;0.40;;;10.70;99.90;;;;;;4957192;28;20473;-73
2022/08/24 12:04:05;;;;;;;0.90;0.30;;;10.70;99.90;;;;;;4957215;28;20055;-74
2022/08/24 12:07:03;;;;;;;1.85;0.50;;;10.70;99.90;;;;;;4956314;29;20031;-73
2022/08/24 12:09:52;;;;;;;0.63;0.30;;;10.70;99.90;;;;;;4957394;29;20027;-73
2022/08/24 12:12:44;;;;;;;1.92;0.40;;;10.70;99.90;;;;;;4955790;29;20086;-72
2022/08/24 12:15:39;;;;;;;1.88;0.45;;;10.70;99.90;;;;;;4957065;28;20051;-72
2022/08/24 12:18:27;;;;;;;2.55;0.50;;;10.60;99.90;;;;;;4956173;29;20384;-72
2022/08/24 12:20:55;;;;;;;1.25;0.52;;;10.60;99.90;;;;;;4956054;29;20020;-71
2022/08/24 12:23:50;;;;;;;2.90;0.70;;;10.60;99.90;;;;;;4956910;28;20028;-72
2022/08/24 12:26:45;;;;;;;0.43;0.25;;;10.60;99.90;;;;;;4956035;29;20047;-72
2022/08/24 12:29:18;;;;;;;3.25;0.50;;;10.60;99.90;;;;;;4955933;29;20031;-73
2022/08/24 12:32:00;;;;;;;0.98;0.38;;;10.60;99.90;;;;;;4955886;29;20074;-71
2022/08/24 12:34:37;;;;;;;1.52;0.40;;;10.50;99.90;;;;;;4955890;29;20050;-72
2022/08/24 12:37:25;;;;;;;1.48;0.20;;;10.40;99.90;;;;;;4955524;29;20034;-71
2022/08/24 12:40:28;;;;;;;1.60;0.40;;;10.40;99.90;;;;;;4956216;28;20400;-72
2022/08/24 12:43:18;;;;;;;1.17;0.40;;;10.40;99.90;;;;;;4944992;29;20035;-74
2022/08/24 12:45:46;;;;;;;2.45;0.50;;;10.40;99.90;;;;;;4955710;29;20600;-73
2022/08/24 12:48:32;;;;;;;1.85;0.40;;;10.40;99.90;;;;;;4956059;29;20126;-73
2022/08/24 12:51:20;;;;;;;1.10;0.50;;;10.40;99.90;;;;;;4957336;28;20456;-74
2022/08/24 12:54:25;;;;;;;2.33;0.40;;;10.30;99.90;;;;;;4957667;28;20053;-73
2022/08/24 12:57:14;;;;;;;1.85;0.50;;;10.30;99.90;;;;;;4956795;28;20391;-76
2022/08/24 12:59:58;;;;;;;1.40;0.40;;;10.20;99.90;;;;;;4956967;28;20020;-74
2022/08/24 13:02:31;;;;;;;2.20;0.50;;;10.20;99.90;;;;;;4957115;28;20424;-74
2022/08/24 13:05:12;;;;;;;2.70;0.65;;;10.10;99.90;;;;;;4955730;29;20035;-72
2022/08/24 13:07:43;;;;;;;1.73;0.45;;;10.10;99.90;;;;;;4955594;29;20023;-72
2022/08/24 13:10:13;;;;;;;3.65;0.77;;;10.10;99.90;;;;;;4956698;28;20062;-72
2022/08/24 13:12:42;;;;;;;1.75;0.40;;;10.00;99.90;;;;;;4957278;28;20029;-74
2022/08/24 13:15:25;;;;;;;0.98;0.40;;;10.00;99.90;;;;;;4957132;28;20166;-74
2022/08/24 13:18:06;;;;;;;0.95;0.40;;;10.00;99.90;;;;;;4955803;29;20028;-74
2022/08/24 13:20:36;;;;;;;2.50;0.80;;;10.00;99.90;;;;;;4955572;29;20031;-73
2022/08/24 13:23:13;;;;;;;2.60;0.50;;;10.00;99.90;;;;;;4955701;29;20444;-72
2022/08/24 13:25:43;;;;;;;1.55;0.68;;;10.00;99.90;;;;;;4956370;28;20082;-73
2022/08/24 13:28:35;;;;;;;2.47;0.60;;;10.00;99.90;;;;;;4955335;29;20035;-73
2022/08/24 13:31:03;;;;;;;3.25;0.50;;;9.90;99.90;;;;;;4956873;28;20031;-72
2022/08/24 13:33:43;;;;;;;1.17;0.50;;;9.90;99.90;;;;;;4955017;29;20081;-73
2022/08/24 13:36:28;;;;;;;3.13;0.50;;;9.90;99.90;;;;;;4954363;29;20035;-75
2022/08/24 13:39:17;;;;;;;2.70;0.52;;;9.90;99.90;;;;;;4955084;29;20119;-75